Time;durP1;ratioP1;P1;durP2;ratioP2;P2;SDS_P1;SDS_P2;PMS_P1;PMS_P2;Temp;Humidity;BMP_temperature;BMP_pressure;BME280_temperature;BME280_humidity;BME280_pressure;Samples;Min_cycle;Max_cycle;Signal;HPM_P1;HPM_P2
2021/09/05 00:00:07;;;;;;;3.60;2.67;;;12.50;99.90;;;;;;4935180;29;20417;-74
2021/09/05 00:02:38;;;;;;;3.30;1.93;;;12.60;99.90;;;;;;4935378;29;20411;-74
2021/09/05 00:05:08;;;;;;;2.13;1.93;;;12.60;99.90;;;;;;4935229;29;20400;-74
2021/09/05 00:07:37;;;;;;;2.27;1.73;;;12.70;99.90;;;;;;4934704;29;20423;-72
2021/09/05 00:10:06;;;;;;;1.77;1.43;;;12.60;99.90;;;;;;4934952;29;20383;-72
2021/09/05 00:12:35;;;;;;;2.20;1.83;;;12.50;99.90;;;;;;4935053;29;20897;-72
2021/09/05 00:15:06;;;;;;;3.30;2.07;;;12.50;99.90;;;;;;4935246;29;20503;-72
2021/09/05 00:17:35;;;;;;;3.80;3.37;;;12.40;99.90;;;;;;4934744;29;20430;-72
2021/09/05 00:20:04;;;;;;;2.20;2.00;;;12.30;99.90;;;;;;4935237;29;20430;-72
2021/09/05 00:22:32;;;;;;;1.53;1.43;;;12.20;99.90;;;;;;4934698;29;20478;-72
2021/09/05 00:25:01;;;;;;;1.10;1.00;;;12.10;99.90;;;;;;4935135;29;20940;-72
2021/09/05 00:27:29;;;;;;;1.60;1.13;;;12.10;99.90;;;;;;4934673;29;20994;-72
2021/09/05 00:29:57;;;;;;;2.43;2.23;;;12.10;99.90;;;;;;4934776;29;20424;-73
2021/09/05 00:32:27;;;;;;;1.67;1.40;;;12.10;99.90;;;;;;4934626;29;20824;-72
2021/09/05 00:34:55;;;;;;;2.17;1.33;;;12.00;99.90;;;;;;4917627;29;20943;-73
2021/09/05 00:37:25;;;;;;;1.47;0.90;;;12.00;99.90;;;;;;4935010;29;21172;-73
2021/09/05 00:39:53;;;;;;;2.27;1.97;;;12.00;99.90;;;;;;4934882;29;20504;-73
2021/09/05 00:42:26;;;;;;;2.20;1.97;;;12.00;99.90;;;;;;4919178;29;20460;-73
2021/09/05 00:44:55;;;;;;;1.50;1.40;;;12.00;99.90;;;;;;4921337;29;20431;-73
2021/09/05 00:47:23;;;;;;;4.47;4.17;;;12.00;99.90;;;;;;4938538;29;20435;-73
2021/09/05 00:49:52;;;;;;;1.83;1.30;;;11.90;99.90;;;;;;4938576;29;20977;-73
2021/09/05 00:52:21;;;;;;;2.40;1.80;;;12.00;99.90;;;;;;4938526;29;20424;-73
2021/09/05 00:54:49;;;;;;;4.10;2.53;;;11.80;99.90;;;;;;4938487;29;20399;-73
2021/09/05 00:57:18;;;;;;;3.20;1.67;;;11.80;99.90;;;;;;4938693;29;20460;-73
2021/09/05 00:59:49;;;;;;;2.20;2.00;;;11.80;99.90;;;;;;4938386;29;20923;-73
2021/09/05 01:02:18;;;;;;;2.30;2.17;;;11.90;99.90;;;;;;4920936;29;20471;-73
2021/09/05 01:04:46;;;;;;;4.97;2.30;;;11.80;99.90;;;;;;4921055;29;20473;-73
2021/09/05 01:07:16;;;;;;;2.40;2.20;;;11.70;99.90;;;;;;4938536;29;20955;-73
2021/09/05 01:09:45;;;;;;;3.27;3.00;;;11.70;99.90;;;;;;4921410;29;20444;-73
2021/09/05 01:12:14;;;;;;;6.20;5.60;;;11.70;99.90;;;;;;4938130;29;20464;-73
2021/09/05 01:14:42;;;;;;;2.37;1.97;;;11.60;99.90;;;;;;4921018;29;20483;-73
2021/09/05 01:17:11;;;;;;;2.77;2.57;;;11.60;99.90;;;;;;4938442;29;20833;-74
2021/09/05 01:20:08;;;;;;;6.27;5.90;;;11.60;99.90;;;;;;4921727;29;20431;-73
2021/09/05 01:23:00;;;;;;;3.37;1.67;;;11.50;99.90;;;;;;4938223;29;20454;-73
2021/09/05 01:26:06;;;;;;;3.50;2.83;;;11.60;99.90;;;;;;4937793;29;20440;-73
2021/09/05 01:29:04;;;;;;;2.47;1.83;;;11.50;99.90;;;;;;4920826;29;20485;-73
2021/09/05 01:31:53;;;;;;;1.93;1.37;;;11.50;99.90;;;;;;4938082;29;20413;-73
2021/09/05 01:34:39;;;;;;;2.63;2.27;;;11.50;99.90;;;;;;4937916;29;20565;-73
2021/09/05 01:37:27;;;;;;;3.10;2.50;;;11.50;99.90;;;;;;4935938;29;20493;-72
2021/09/05 01:40:25;;;;;;;2.60;2.40;;;11.50;99.90;;;;;;4937244;29;20475;-73
2021/09/05 01:43:07;;;;;;;2.73;2.00;;;11.50;99.90;;;;;;4920287;29;20975;-73
2021/09/05 01:46:04;;;;;;;5.83;3.07;;;11.40;99.90;;;;;;4920316;29;20561;-73
2021/09/05 01:49:01;;;;;;;3.80;2.23;;;11.30;99.90;;;;;;4937493;29;20430;-73
2021/09/05 01:52:05;;;;;;;1.67;1.57;;;11.30;99.90;;;;;;4920066;29;20444;-73
2021/09/05 01:55:12;;;;;;;1.30;1.20;;;11.30;99.90;;;;;;4936183;29;20540;-72
2021/09/05 01:57:58;;;;;;;1.83;1.53;;;11.30;99.90;;;;;;4937199;29;20458;-72
2021/09/05 02:00:44;;;;;;;2.30;1.67;;;11.30;99.90;;;;;;4937423;29;20512;-73
2021/09/05 02:03:22;;;;;;;4.27;2.93;;;11.20;99.90;;;;;;4919751;29;20901;-72
2021/09/05 02:06:00;;;;;;;4.50;2.57;;;11.20;99.90;;;;;;4920007;29;20458;-72
2021/09/05 02:08:48;;;;;;;2.20;1.13;;;11.30;99.90;;;;;;4936730;29;20520;-73
2021/09/05 02:11:51;;;;;;;1.40;1.23;;;11.30;99.90;;;;;;4937042;29;20399;-72
2021/09/05 02:14:41;;;;;;;3.50;2.17;;;11.30;99.90;;;;;;4919493;29;20445;-72
2021/09/05 02:17:29;;;;;;;1.93;1.60;;;11.40;99.90;;;;;;4919796;29;20970;-73
2021/09/05 02:20:21;;;;;;;2.70;2.50;;;11.40;99.90;;;;;;4936331;29;20467;-73
2021/09/05 02:23:07;;;;;;;4.97;4.53;;;11.40;99.90;;;;;;4936596;29;20491;-74
2021/09/05 02:25:49;;;;;;;1.83;1.73;;;11.40;99.90;;;;;;4919631;29;20808;-73
2021/09/05 02:28:20;;;;;;;2.70;1.77;;;11.50;99.90;;;;;;4937072;29;20460;-72
2021/09/05 02:31:11;;;;;;;1.40;1.30;;;11.50;99.90;;;;;;4930978;29;20452;-72
2021/09/05 02:33:57;;;;;;;1.40;1.30;;;11.50;99.90;;;;;;4919396;29;20457;-73
2021/09/05 02:36:52;;;;;;;2.90;2.20;;;11.60;99.90;;;;;;4934186;29;20434;-74
2021/09/05 02:39:47;;;;;;;3.57;3.27;;;11.70;99.90;;;;;;4919183;29;20788;-73
2021/09/05 02:42:38;;;;;;;5.30;2.23;;;11.80;99.90;;;;;;4934822;29;20499;-74
2021/09/05 02:45:28;;;;;;;3.07;2.87;;;11.90;99.90;;;;;;4919284;29;20426;-73
2021/09/05 02:48:20;;;;;;;1.57;1.43;;;12.00;99.90;;;;;;4919072;29;20468;-73
2021/09/05 02:51:17;;;;;;;2.93;1.97;;;12.20;99.90;;;;;;4936210;29;20451;-72
2021/09/05 02:54:21;;;;;;;2.57;1.50;;;12.30;99.90;;;;;;4935982;29;20501;-73
2021/09/05 02:57:10;;;;;;;4.03;2.30;;;12.30;99.90;;;;;;4925314;23;20505;-75
2021/09/05 02:59:58;;;;;;;5.70;4.07;;;12.50;99.90;;;;;;4898294;29;20476;-74
2021/09/05 03:02:45;;;;;;;3.70;2.73;;;12.50;99.90;;;;;;4898193;29;20569;-73
2021/09/05 03:05:31;;;;;;;2.53;2.33;;;12.50;99.90;;;;;;4881352;29;20510;-74
2021/09/05 03:08:16;;;;;;;4.43;4.03;;;12.60;99.90;;;;;;4881126;29;20472;-74
2021/09/05 03:10:57;;;;;;;4.30;2.73;;;12.70;99.90;;;;;;4881280;29;20941;-74
2021/09/05 03:13:54;;;;;;;3.20;2.90;;;12.70;99.90;;;;;;4880321;29;20563;-74
2021/09/05 03:16:45;;;;;;;4.80;2.00;;;12.70;99.90;;;;;;4898151;29;20448;-75
2021/09/05 03:19:30;;;;;;;4.17;1.83;;;12.70;99.90;;;;;;4881121;29;20528;-75
2021/09/05 03:22:20;;;;;;;3.90;3.50;;;12.80;99.90;;;;;;4881036;29;20824;-74
2021/09/05 03:25:06;;;;;;;5.40;3.60;;;12.90;99.90;;;;;;4881090;29;20468;-74
2021/09/05 03:27:56;;;;;;;2.47;1.83;;;12.90;99.90;;;;;;4897939;29;20455;-75
2021/09/05 03:30:34;;;;;;;5.13;4.73;;;13.00;99.90;;;;;;4897773;29;20865;-75
2021/09/05 03:33:22;;;;;;;4.20;3.83;;;13.00;99.90;;;;;;4897767;29;20446;-74
2021/09/05 03:36:08;;;;;;;4.40;3.90;;;13.00;99.90;;;;;;4897654;29;20397;-74
2021/09/05 03:38:54;;;;;;;4.00;2.57;;;13.00;99.90;;;;;;4880558;29;20518;-74
2021/09/05 03:41:43;;;;;;;4.77;3.10;;;13.00;99.90;;;;;;4893940;29;20473;-75
2021/09/05 03:44:31;;;;;;;3.80;3.43;;;12.90;99.90;;;;;;4897555;29;20409;-74
2021/09/05 03:47:18;;;;;;;2.27;2.07;;;12.90;99.90;;;;;;4897583;29;20480;-74
2021/09/05 03:50:11;;;;;;;6.53;3.77;;;12.90;99.90;;;;;;4880685;29;20442;-74
2021/09/05 03:52:44;;;;;;;2.07;1.97;;;12.80;99.90;;;;;;4880455;29;20446;-74
2021/09/05 03:55:17;;;;;;;2.13;2.00;;;12.80;99.90;;;;;;4896109;29;20456;-74
2021/09/05 03:57:46;;;;;;;4.60;3.73;;;12.80;99.90;;;;;;4880310;29;20498;-74
2021/09/05 04:00:16;;;;;;;4.97;3.20;;;12.70;99.90;;;;;;4880452;29;20448;-73
2021/09/05 04:02:46;;;;;;;5.77;2.90;;;12.60;99.90;;;;;;4880501;29;20484;-75
2021/09/05 04:05:16;;;;;;;2.40;1.73;;;12.50;99.90;;;;;;4880090;29;20472;-74
2021/09/05 04:08:00;;;;;;;3.53;1.83;;;12.40;99.90;;;;;;4880047;29;20992;-74
2021/09/05 04:10:28;;;;;;;4.10;2.10;;;12.30;99.90;;;;;;4896975;29;20431;-73
2021/09/05 04:12:57;;;;;;;3.17;2.90;;;12.30;99.90;;;;;;4896933;29;20526;-73
2021/09/05 04:15:27;;;;;;;4.23;2.30;;;12.10;99.90;;;;;;4896766;29;20461;-73
2021/09/05 04:17:56;;;;;;;4.43;4.10;;;12.10;99.90;;;;;;4896604;29;20436;-74
2021/09/05 04:20:25;;;;;;;2.50;2.30;;;12.00;99.90;;;;;;4880098;29;20525;-74
2021/09/05 04:22:53;;;;;;;4.47;3.10;;;12.00;99.90;;;;;;4896887;29;20458;-73
2021/09/05 04:25:21;;;;;;;3.50;2.50;;;11.90;99.90;;;;;;4897046;29;20493;-73
2021/09/05 04:27:49;;;;;;;2.00;1.83;;;11.90;99.90;;;;;;4897025;29;20455;-74
2021/09/05 04:30:17;;;;;;;4.20;2.87;;;11.90;99.90;;;;;;4896947;29;20438;-73
2021/09/05 04:32:46;;;;;;;1.70;1.60;;;11.90;99.90;;;;;;4897111;29;20462;-74
2021/09/05 04:35:14;;;;;;;3.27;2.97;;;11.90;99.90;;;;;;4897075;29;20401;-74
2021/09/05 04:37:42;;;;;;;3.70;3.50;;;12.00;99.90;;;;;;4896989;29;20454;-74
2021/09/05 04:40:11;;;;;;;3.60;1.67;;;12.10;99.90;;;;;;4897541;29;20419;-73
2021/09/05 04:42:39;;;;;;;2.10;1.83;;;12.10;99.90;;;;;;4896765;29;20428;-74
2021/09/05 04:45:08;;;;;;;2.60;2.37;;;12.20;99.90;;;;;;4896923;29;20397;-73
2021/09/05 04:47:36;;;;;;;1.60;1.50;;;12.20;99.90;;;;;;4897068;29;20425;-74
2021/09/05 04:50:08;;;;;;;1.63;1.37;;;12.20;99.90;;;;;;4897642;29;20940;-74
2021/09/05 04:52:36;;;;;;;2.03;1.80;;;12.20;99.90;;;;;;4898268;29;20645;-74
2021/09/05 04:55:04;;;;;;;2.40;2.20;;;12.20;99.90;;;;;;4881054;29;20937;-74
2021/09/05 04:57:33;;;;;;;5.40;3.03;;;12.20;99.90;;;;;;4909831;29;20546;-73
2021/09/05 05:00:01;;;;;;;4.00;1.70;;;12.20;99.90;;;;;;4928617;29;20396;-74
2021/09/05 05:02:30;;;;;;;2.27;2.07;;;12.20;99.90;;;;;;4929607;29;20404;-74
2021/09/05 05:04:58;;;;;;;1.93;1.70;;;12.30;99.90;;;;;;4930202;29;20461;-74
2021/09/05 05:07:28;;;;;;;3.07;2.00;;;12.40;99.90;;;;;;4930056;29;20901;-74
2021/09/05 05:09:56;;;;;;;4.23;2.23;;;12.40;99.90;;;;;;4909940;29;20416;-73
2021/09/05 05:12:24;;;;;;;6.30;2.67;;;12.40;99.90;;;;;;4925563;29;20453;-74
2021/09/05 05:14:52;;;;;;;3.40;2.53;;;12.40;99.90;;;;;;4919964;29;20421;-74
2021/09/05 05:17:20;;;;;;;4.13;2.60;;;12.50;99.90;;;;;;4916403;29;20954;-74
2021/09/05 05:19:48;;;;;;;2.60;1.30;;;12.50;99.90;;;;;;4898888;29;20442;-74
2021/09/05 05:22:17;;;;;;;2.27;1.27;;;12.60;99.90;;;;;;4898730;29;20437;-74
2021/09/05 05:24:46;;;;;;;5.00;3.20;;;12.70;99.90;;;;;;4899962;29;20448;-74
2021/09/05 05:27:15;;;;;;;4.00;2.77;;;12.60;99.90;;;;;;4915395;29;20477;-74
2021/09/05 05:29:43;;;;;;;2.27;1.53;;;12.80;99.90;;;;;;4917734;29;20392;-74
2021/09/05 05:32:11;;;;;;;2.47;1.37;;;12.80;99.90;;;;;;4902264;29;21048;-74
2021/09/05 05:34:39;;;;;;;3.73;2.67;;;12.80;99.90;;;;;;4918925;29;20472;-73
2021/09/05 05:37:07;;;;;;;2.80;2.30;;;12.90;99.90;;;;;;4902120;29;20465;-75
2021/09/05 05:39:35;;;;;;;3.90;2.80;;;12.90;99.90;;;;;;4918982;29;20403;-74
2021/09/05 05:42:05;;;;;;;1.67;1.43;;;12.90;99.90;;;;;;4901825;29;20850;-74
2021/09/05 05:44:33;;;;;;;4.50;2.83;;;12.90;99.90;;;;;;4918707;29;20520;-73
2021/09/05 05:47:01;;;;;;;2.17;1.93;;;13.00;99.90;;;;;;4918501;29;20907;-74
2021/09/05 05:49:30;;;;;;;4.33;1.90;;;13.10;99.90;;;;;;4902276;29;20447;-76
2021/09/05 05:51:58;;;;;;;2.70;2.10;;;13.20;99.90;;;;;;4901742;29;20444;-74
2021/09/05 05:54:26;;;;;;;2.10;1.87;;;13.20;99.90;;;;;;4918825;29;20464;-74
2021/09/05 05:56:54;;;;;;;2.20;2.00;;;13.20;99.90;;;;;;4918107;29;20850;-73
2021/09/05 05:59:24;;;;;;;2.00;1.57;;;13.20;99.90;;;;;;4901348;29;20441;-74
2021/09/05 06:01:52;;;;;;;2.33;1.13;;;13.20;99.90;;;;;;4918375;29;20422;-76
2021/09/05 06:04:20;;;;;;;2.63;2.43;;;13.30;99.90;;;;;;4918359;29;20548;-77
2021/09/05 06:06:48;;;;;;;2.10;1.90;;;13.30;99.90;;;;;;4901604;29;20472;-74
2021/09/05 06:09:16;;;;;;;2.10;1.43;;;13.40;99.90;;;;;;4918701;29;20433;-74
2021/09/05 06:11:44;;;;;;;3.10;1.83;;;13.50;99.90;;;;;;4918307;29;20408;-75
2021/09/05 06:14:13;;;;;;;2.23;2.03;;;13.50;99.90;;;;;;4918142;29;20525;-73
2021/09/05 06:16:42;;;;;;;2.20;1.80;;;13.60;99.90;;;;;;4918584;29;20443;-73
2021/09/05 06:19:10;;;;;;;0.90;0.70;;;13.60;99.90;;;;;;4901350;29;20412;-75
2021/09/05 06:21:38;;;;;;;1.30;1.13;;;13.60;99.90;;;;;;4901281;29;20491;-74
2021/09/05 06:24:07;;;;;;;1.70;1.60;;;13.70;99.90;;;;;;4918008;29;20461;-75
2021/09/05 06:26:35;;;;;;;1.23;0.93;;;13.80;99.90;;;;;;4918244;29;20436;-75
2021/09/05 06:29:07;;;;;;;2.07;1.50;;;13.80;99.90;;;;;;4901105;29;20505;-75
2021/09/05 06:31:35;;;;;;;2.50;2.30;;;13.90;99.90;;;;;;4901047;29;20473;-74
2021/09/05 06:34:05;;;;;;;1.07;0.80;;;14.00;99.90;;;;;;4918475;29;20411;-74
2021/09/05 06:36:33;;;;;;;1.20;1.07;;;14.20;99.90;;;;;;4919142;29;20412;-74
2021/09/05 06:39:01;;;;;;;1.43;1.23;;;14.30;99.90;;;;;;4901410;29;20936;-75
2021/09/05 06:41:29;;;;;;;2.13;1.73;;;14.40;99.90;;;;;;4918511;29;20397;-75
2021/09/05 06:43:58;;;;;;;2.33;0.90;;;14.50;99.90;;;;;;4919147;29;20968;-75
2021/09/05 06:46:26;;;;;;;2.90;1.47;;;14.60;99.90;;;;;;4917673;29;20444;-75
2021/09/05 06:48:54;;;;;;;1.10;1.00;;;14.70;99.90;;;;;;4917819;29;20881;-75
2021/09/05 06:51:25;;;;;;;3.17;1.37;;;14.70;99.90;;;;;;4900836;29;20419;-75
2021/09/05 06:53:53;;;;;;;1.20;0.87;;;14.80;99.90;;;;;;4917531;29;20453;-74
2021/09/05 06:56:21;;;;;;;2.17;1.50;;;14.90;99.90;;;;;;4917634;29;20461;-74
2021/09/05 06:58:49;;;;;;;2.03;1.47;;;15.00;99.90;;;;;;4917366;29;21067;-75
2021/09/05 07:01:18;;;;;;;1.40;1.10;;;15.20;99.90;;;;;;4917873;29;20410;-75
2021/09/05 07:03:46;;;;;;;2.27;1.20;;;15.40;99.90;;;;;;4900108;29;20823;-75
2021/09/05 07:06:15;;;;;;;2.73;2.53;;;15.50;99.90;;;;;;4917268;29;20936;-75
2021/09/05 07:08:44;;;;;;;1.10;0.73;;;15.60;99.90;;;;;;4917184;29;20487;-75
2021/09/05 07:11:12;;;;;;;1.43;0.90;;;15.50;99.90;;;;;;4900786;29;20400;-75
2021/09/05 07:13:40;;;;;;;2.27;1.83;;;15.50;99.90;;;;;;4917126;29;20429;-75
2021/09/05 07:16:08;;;;;;;3.27;3.07;;;15.50;99.90;;;;;;4917546;29;20916;-74
2021/09/05 07:18:36;;;;;;;1.33;1.03;;;15.60;99.90;;;;;;4924162;29;20457;-75
2021/09/05 07:21:05;;;;;;;4.20;1.00;;;15.70;99.90;;;;;;4923742;29;20534;-74
2021/09/05 07:23:33;;;;;;;1.70;1.13;;;15.80;99.90;;;;;;4919143;29;20429;-76
2021/09/05 07:26:03;;;;;;;4.30;2.43;;;15.90;99.90;;;;;;4918001;29;21026;-74
2021/09/05 07:28:33;;;;;;;2.00;1.10;;;15.90;99.90;;;;;;4917345;29;20424;-73
2021/09/05 07:31:01;;;;;;;1.20;1.10;;;16.00;99.90;;;;;;4917778;29;20427;-74
2021/09/05 07:33:29;;;;;;;1.20;1.00;;;15.90;99.90;;;;;;4919684;29;20428;-77
2021/09/05 07:35:58;;;;;;;2.70;1.23;;;15.90;99.90;;;;;;4902400;29;20433;-74
2021/09/05 07:38:26;;;;;;;2.80;1.80;;;15.90;99.90;;;;;;4918882;29;20485;-74
2021/09/05 07:40:54;;;;;;;1.70;1.30;;;15.90;99.90;;;;;;4918093;29;20434;-76
2021/09/05 07:43:23;;;;;;;4.50;1.90;;;16.10;99.90;;;;;;4916958;29;20431;-74
2021/09/05 07:45:52;;;;;;;3.50;1.47;;;16.30;99.90;;;;;;4916831;29;20431;-74
2021/09/05 07:48:20;;;;;;;1.17;1.07;;;16.40;99.90;;;;;;4916752;29;20454;-75
2021/09/05 07:50:48;;;;;;;2.20;2.00;;;16.40;99.90;;;;;;4899506;29;20745;-74
2021/09/05 07:53:16;;;;;;;1.83;1.17;;;16.40;99.90;;;;;;4915839;29;20509;-75
2021/09/05 07:55:44;;;;;;;1.10;0.73;;;16.50;99.90;;;;;;4916464;29;20462;-75
2021/09/05 07:58:12;;;;;;;4.70;1.30;;;16.60;99.90;;;;;;4899756;29;20452;-75
2021/09/05 08:00:42;;;;;;;3.23;2.27;;;16.70;99.90;;;;;;4916355;29;20466;-75
2021/09/05 08:03:10;;;;;;;3.73;1.97;;;17.00;99.90;;;;;;4916617;29;20450;-75
2021/09/05 08:05:39;;;;;;;1.60;1.10;;;17.20;99.90;;;;;;4916674;29;20453;-75
2021/09/05 08:08:07;;;;;;;2.07;1.50;;;17.40;99.90;;;;;;4900989;29;20431;-74
2021/09/05 08:10:35;;;;;;;2.10;1.80;;;17.70;99.90;;;;;;4900198;29;20420;-75
2021/09/05 08:13:03;;;;;;;2.03;1.87;;;18.10;99.90;;;;;;4916475;29;20525;-73
2021/09/05 08:15:31;;;;;;;2.07;1.40;;;18.20;99.90;;;;;;4916536;29;20436;-74
2021/09/05 08:18:00;;;;;;;2.53;1.37;;;18.10;99.90;;;;;;4916376;29;20467;-74
2021/09/05 08:20:28;;;;;;;2.63;0.90;;;18.10;99.90;;;;;;4915739;29;20408;-74
2021/09/05 08:22:56;;;;;;;1.80;1.40;;;18.10;99.90;;;;;;4916012;29;20407;-75
2021/09/05 08:25:25;;;;;;;2.90;1.13;;;18.20;99.90;;;;;;4916457;29;20432;-75
2021/09/05 08:27:53;;;;;;;2.17;1.80;;;18.20;99.90;;;;;;4899603;29;20451;-74
2021/09/05 08:30:21;;;;;;;2.37;2.17;;;18.30;99.90;;;;;;4916601;29;20416;-75
2021/09/05 08:32:49;;;;;;;2.50;1.93;;;18.40;99.90;;;;;;4918193;29;20410;-75
2021/09/05 08:35:18;;;;;;;2.30;0.93;;;18.50;99.90;;;;;;4919479;29;20492;-74
2021/09/05 08:37:46;;;;;;;3.50;1.20;;;18.40;99.90;;;;;;4929221;29;20428;-74
2021/09/05 08:40:15;;;;;;;2.37;2.17;;;18.30;99.90;;;;;;4931905;29;20392;-73
2021/09/05 08:42:44;;;;;;;2.43;1.40;;;18.10;99.90;;;;;;4918115;29;20449;-74
2021/09/05 08:45:12;;;;;;;2.50;2.20;;;18.00;99.90;;;;;;4935389;29;20450;-75
2021/09/05 08:47:42;;;;;;;1.90;1.70;;;17.90;99.90;;;;;;4935077;29;20424;-75
2021/09/05 08:50:11;;;;;;;5.30;3.07;;;17.90;99.90;;;;;;4932010;29;20441;-76
2021/09/05 08:52:40;;;;;;;2.70;2.07;;;18.00;99.90;;;;;;4927002;29;20441;-75
2021/09/05 08:55:10;;;;;;;2.27;1.77;;;18.10;99.90;;;;;;4917515;29;20900;-74
2021/09/05 08:57:38;;;;;;;3.00;1.80;;;18.10;99.90;;;;;;4925511;23;20776;-73
2021/09/05 09:00:07;;;;;;;1.93;1.67;;;18.50;99.90;;;;;;4916598;29;20402;-74
2021/09/05 09:02:47;;;;;;;1.90;1.20;;;18.70;99.90;;;;;;4913919;29;20459;-73
2021/09/05 09:05:30;;;;;;;4.20;1.80;;;18.80;99.90;;;;;;4916899;29;20454;-72
2021/09/05 09:08:01;;;;;;;2.77;1.63;;;18.90;99.90;;;;;;4900258;29;20535;-74
2021/09/05 09:10:31;;;;;;;1.80;1.43;;;18.60;99.90;;;;;;4917351;29;20425;-74
2021/09/05 09:12:59;;;;;;;5.53;2.87;;;18.30;99.90;;;;;;4917184;29;20452;-73
2021/09/05 09:15:30;;;;;;;2.40;1.53;;;18.60;99.90;;;;;;4918140;29;20392;-75
2021/09/05 09:17:59;;;;;;;3.43;2.47;;;19.00;99.90;;;;;;4916013;29;20457;-73
2021/09/05 09:20:39;;;;;;;3.23;1.70;;;19.00;99.90;;;;;;4917646;29;20415;-74
2021/09/05 09:23:12;;;;;;;2.60;2.30;;;18.70;99.90;;;;;;4917721;29;20422;-72
2021/09/05 09:26:01;;;;;;;1.97;1.40;;;18.40;99.90;;;;;;4900085;29;20803;-72
2021/09/05 09:28:32;;;;;;;2.67;1.83;;;18.30;99.90;;;;;;4900139;29;20497;-72
2021/09/05 09:31:03;;;;;;;4.10;3.80;;;18.40;99.90;;;;;;4917081;29;20412;-69
2021/09/05 09:33:32;;;;;;;5.13;1.87;;;18.50;99.90;;;;;;4900217;29;20439;-72
2021/09/05 09:36:02;;;;;;;3.40;2.77;;;18.60;99.90;;;;;;4916539;29;20869;-68
2021/09/05 09:38:32;;;;;;;4.67;1.63;;;18.60;99.90;;;;;;4901127;29;20436;-70
2021/09/05 09:41:10;;;;;;;2.37;2.03;;;18.50;99.90;;;;;;4900708;29;20420;-70
2021/09/05 09:43:50;;;;;;;4.10;2.20;;;18.50;99.90;;;;;;4900802;29;20540;-72
2021/09/05 09:46:20;;;;;;;2.50;1.67;;;18.60;99.90;;;;;;4900161;29;21029;-72
2021/09/05 09:48:50;;;;;;;1.70;1.57;;;18.70;99.90;;;;;;4917062;29;20469;-72
2021/09/05 09:51:19;;;;;;;2.47;1.77;;;18.70;99.90;;;;;;4899229;29;20469;-72
2021/09/05 09:53:50;;;;;;;4.50;2.40;;;18.70;99.90;;;;;;4899576;29;20409;-72
2021/09/05 09:56:24;;;;;;;2.53;1.30;;;18.60;99.90;;;;;;4915986;29;20812;-71
2021/09/05 09:58:54;;;;;;;3.43;2.77;;;18.50;99.90;;;;;;4899281;29;20458;-72
2021/09/05 10:01:24;;;;;;;3.27;2.10;;;18.30;99.90;;;;;;4915773;29;20429;-72
2021/09/05 10:03:55;;;;;;;3.07;2.07;;;18.10;99.90;;;;;;4899211;29;20445;-73
2021/09/05 10:06:25;;;;;;;4.90;3.63;;;18.10;99.90;;;;;;4916081;29;20454;-70
2021/09/05 10:08:57;;;;;;;4.20;2.63;;;18.10;99.90;;;;;;4916064;29;20766;-72
2021/09/05 10:11:27;;;;;;;4.47;2.33;;;18.30;99.90;;;;;;4899231;29;20499;-69
2021/09/05 10:13:57;;;;;;;2.97;2.67;;;18.40;99.90;;;;;;4898432;29;21232;-73
2021/09/05 10:16:26;;;;;;;2.23;1.63;;;18.80;99.90;;;;;;4898253;29;20412;-69
2021/09/05 10:18:57;;;;;;;3.77;1.67;;;19.30;99.90;;;;;;4898735;29;20437;-71
2021/09/05 10:21:30;;;;;;;2.03;1.80;;;19.70;99.90;;;;;;4898357;29;20428;-72
2021/09/05 10:24:00;;;;;;;2.37;1.53;;;19.90;99.90;;;;;;4903142;29;20503;-72
2021/09/05 10:26:29;;;;;;;2.67;1.27;;;20.10;99.90;;;;;;4901177;29;20830;-71
2021/09/05 10:29:01;;;;;;;2.60;1.93;;;20.10;99.90;;;;;;4916122;29;20855;-72
2021/09/05 10:31:31;;;;;;;2.57;2.03;;;20.10;99.90;;;;;;4929986;29;20453;-72
2021/09/05 10:34:00;;;;;;;4.83;3.00;;;20.30;99.90;;;;;;4915714;29;20400;-68
2021/09/05 10:36:41;;;;;;;4.30;2.63;;;20.30;99.90;;;;;;4915343;29;20542;-72
2021/09/05 10:39:11;;;;;;;2.53;1.63;;;20.20;99.90;;;;;;4898587;29;20456;-74
2021/09/05 10:41:49;;;;;;;1.70;1.17;;;20.20;99.90;;;;;;4898211;29;20436;-73
2021/09/05 10:44:18;;;;;;;2.57;2.30;;;20.30;99.90;;;;;;4915408;29;20513;-72
2021/09/05 10:46:48;;;;;;;2.20;2.00;;;20.10;99.90;;;;;;4929799;29;20994;-69
2021/09/05 10:49:17;;;;;;;5.30;2.60;;;20.20;99.90;;;;;;4898228;29;20590;-68
2021/09/05 10:51:49;;;;;;;2.10;1.50;;;20.30;99.90;;;;;;4915192;29;20995;-72
2021/09/05 10:54:26;;;;;;;1.90;1.73;;;20.50;99.90;;;;;;4898852;29;20404;-73
2021/09/05 10:56:57;;;;;;;3.20;2.17;;;20.70;99.90;;;;;;4930126;29;20453;-71
2021/09/05 10:59:26;;;;;;;4.07;2.57;;;20.40;99.90;;;;;;4915380;29;20489;-73
2021/09/05 11:02:00;;;;;;;2.50;1.70;;;20.30;99.90;;;;;;4914300;29;20766;-70
2021/09/05 11:04:45;;;;;;;4.37;2.20;;;20.40;99.90;;;;;;4929534;29;20634;-70
2021/09/05 11:07:32;;;;;;;1.50;1.33;;;20.60;99.90;;;;;;4914792;29;20465;-72
2021/09/05 11:10:03;;;;;;;3.87;1.20;;;21.10;99.90;;;;;;4929487;29;20435;-72
2021/09/05 11:12:37;;;;;;;1.97;1.33;;;21.50;99.90;;;;;;4914577;29;20445;-71
2021/09/05 11:15:19;;;;;;;2.70;1.20;;;21.60;99.90;;;;;;4914714;29;20403;-70
2021/09/05 11:17:56;;;;;;;1.40;1.13;;;22.00;99.90;;;;;;4897323;29;20836;-71
2021/09/05 11:20:27;;;;;;;2.37;1.50;;;22.10;99.90;;;;;;4914672;29;20916;-72
2021/09/05 11:22:59;;;;;;;7.00;3.13;;;22.10;99.90;;;;;;4931767;29;20508;-72
2021/09/05 11:25:31;;;;;;;3.43;2.13;;;21.80;99.90;;;;;;4922673;29;20413;-70
2021/09/05 11:28:05;;;;;;;4.30;1.37;;;21.60;99.90;;;;;;4911147;29;20509;-72
2021/09/05 11:30:58;;;;;;;2.40;1.70;;;21.30;99.90;;;;;;4917133;29;20942;-71
2021/09/05 11:33:28;;;;;;;2.63;2.00;;;21.20;99.90;;;;;;4916459;29;20950;-71
2021/09/05 11:35:59;;;;;;;1.60;1.50;;;21.20;99.90;;;;;;4933293;29;20427;-72
2021/09/05 11:38:39;;;;;;;3.47;2.60;;;21.50;99.90;;;;;;4915963;29;20444;-69
2021/09/05 11:41:09;;;;;;;3.10;2.00;;;21.70;99.90;;;;;;4915718;29;20496;-71
2021/09/05 11:43:40;;;;;;;2.77;2.10;;;21.80;99.90;;;;;;4914708;29;20462;-72
2021/09/05 11:46:13;;;;;;;2.63;1.73;;;21.90;99.90;;;;;;4930851;29;20433;-72
2021/09/05 11:48:54;;;;;;;2.33;1.87;;;22.00;99.90;;;;;;4933488;29;20760;-72
2021/09/05 11:51:24;;;;;;;3.70;2.27;;;22.10;99.90;;;;;;4930502;29;20953;-71
2021/09/05 11:53:57;;;;;;;2.97;2.00;;;22.10;99.90;;;;;;4932882;29;20404;-71
2021/09/05 11:56:31;;;;;;;2.70;1.80;;;22.10;99.90;;;;;;4916094;29;20484;-72
2021/09/05 11:59:08;;;;;;;2.53;1.83;;;22.10;99.90;;;;;;4916358;29;20459;-68
2021/09/05 12:01:38;;;;;;;4.97;2.90;;;22.10;99.90;;;;;;4916216;29;20443;-68
2021/09/05 12:04:09;;;;;;;2.13;1.80;;;22.30;99.90;;;;;;4933316;29;20403;-69
2021/09/05 12:06:40;;;;;;;4.07;1.80;;;22.60;99.90;;;;;;4933481;29;20775;-68
2021/09/05 12:09:11;;;;;;;3.23;2.83;;;22.70;99.90;;;;;;4916433;29;20986;-71
2021/09/05 12:11:58;;;;;;;4.73;3.03;;;22.60;99.90;;;;;;4933415;29;20430;-70
2021/09/05 12:14:31;;;;;;;3.23;2.93;;;22.30;99.90;;;;;;4916254;29;20496;-72
2021/09/05 12:17:00;;;;;;;6.93;2.10;;;22.30;99.90;;;;;;4916123;29;20601;-68
2021/09/05 12:19:29;;;;;;;2.80;1.73;;;22.30;99.90;;;;;;4933252;29;20428;-72
2021/09/05 12:21:59;;;;;;;3.30;2.30;;;22.30;99.90;;;;;;4916363;29;20454;-71
2021/09/05 12:24:27;;;;;;;2.93;2.03;;;22.40;99.90;;;;;;4933122;29;20456;-71
2021/09/05 12:27:09;;;;;;;3.60;2.47;;;22.70;99.90;;;;;;4932741;29;20464;-71
2021/09/05 12:29:38;;;;;;;3.00;2.43;;;23.20;99.90;;;;;;4932586;29;20407;-72
2021/09/05 12:32:07;;;;;;;3.83;2.77;;;23.40;99.90;;;;;;4932398;29;20449;-72
2021/09/05 12:34:43;;;;;;;3.17;2.43;;;23.60;99.90;;;;;;4914850;29;20444;-71
2021/09/05 12:37:13;;;;;;;3.17;1.80;;;23.70;99.90;;;;;;4932614;29;20428;-70
2021/09/05 12:39:46;;;;;;;2.27;1.67;;;23.80;99.90;;;;;;4937142;29;20511;-71
2021/09/05 12:42:18;;;;;;;1.70;1.13;;;24.10;99.90;;;;;;4936715;29;20448;-71
2021/09/05 12:44:48;;;;;;;3.67;1.83;;;24.00;99.90;;;;;;4936833;29;20465;-73
2021/09/05 12:47:21;;;;;;;3.07;1.90;;;23.80;99.90;;;;;;4920148;29;21006;-71
2021/09/05 12:49:53;;;;;;;2.87;2.23;;;23.40;99.90;;;;;;4937039;29;20456;-72
2021/09/05 12:52:27;;;;;;;2.67;1.50;;;23.20;99.90;;;;;;4920101;29;20465;-71
2021/09/05 12:55:00;;;;;;;3.27;2.80;;;23.10;99.90;;;;;;4920211;29;20476;-70
2021/09/05 12:57:32;;;;;;;3.53;2.40;;;23.00;99.90;;;;;;4937227;29;20424;-72
2021/09/05 13:00:00;;;;;;;1.90;1.20;;;22.60;99.90;;;;;;4937013;29;20428;-71
2021/09/05 13:02:29;;;;;;;4.20;2.67;;;22.60;99.90;;;;;;4936857;29;20855;-71
2021/09/05 13:04:58;;;;;;;2.47;1.93;;;22.90;99.90;;;;;;4937238;29;20511;-71
2021/09/05 13:07:27;;;;;;;2.90;2.60;;;23.20;99.90;;;;;;4937059;29;20913;-71
2021/09/05 13:09:59;;;;;;;3.67;2.13;;;23.40;99.90;;;;;;4919685;29;20484;-70
2021/09/05 13:12:29;;;;;;;3.70;2.20;;;23.80;99.90;;;;;;4936646;29;20891;-70
2021/09/05 13:14:59;;;;;;;3.83;2.50;;;23.80;99.90;;;;;;4919035;29;20448;-70
2021/09/05 13:17:30;;;;;;;1.50;1.30;;;23.80;99.90;;;;;;4937127;29;20466;-71
2021/09/05 13:20:00;;;;;;;3.60;1.93;;;24.20;99.90;;;;;;4937399;29;20425;-71